Terminal Aerodrome Forecast
Issued by NWS

Home | Current Version | Previous Version | Text Only | Print | Product List | Glossary On
Versions: 1 2 3 4 5 6 7 8 9 10 11 12 13 14 15 16 17 18 19 20 21
000
FTUS41 KBOX 212100 AAD
TAFHYA
TAF AMD
KHYA 212100Z 2121/2218 02023G37KT 3SM -RA BR OVC025
      TEMPO 2121/2124 1SM +RA BR OVC015
     FM220000 03025G40KT 3SM -SHRA BR OVC020
     FM220600 03023G38KT 5SM -SHRA BR OVC015
     FM221700 02022G33KT 2SM BR VCSH OVC010=

USA.gov is the U.S. government's official web portal to all federal, state and local government web resources and services.